NCAR-RAP Real-Time Weather Data

Output produced by METARs form (08 May 2021  01:23 UTC)
found at http://weather.rap.ucar.edu/surface/
 
KFWA 080054Z 33012G18KT 10SM FEW070 08/M01 A2997 RMK AO2 PK WND 32026/2357 SLP153 T00831011
KFWA 072354Z 32016G25KT 10SM FEW047 FEW075 10/M01 A2996 RMK AO2 SLP148 60001 T01001006 10150 20100 53013
KFWA 072254Z 33015G23KT 10SM FEW044 SCT060 12/02 A2993 RMK AO2 SLP140 T01170017
KFWA 072154Z 32010G18KT 10SM FEW026 SCT085 13/06 A2991 RMK AO2 LTG DSNT SW RAB13E24 SLP132 TCU DSNT S P0000 T01330061
KFWA 072054Z 27007KT 10SM FEW045 SCT075 BKN095 12/06 A2992 RMK AO2 PK WND 26031/2030 RAB25E46 SLP134 P0001 60001 T01220061 56014
KFWA 071954Z 28013G18KT 10SM FEW038 FEW070 SCT110 BKN250 14/06 A2993 RMK AO2 PK WND 27029/1858 RAB21E37 SLP138 P0000 T01390056
KFWA 071854Z 28020G29KT 10SM FEW035 SCT075 BKN110 BKN250 14/04 A2994 RMK AO2 PK WND 26035/1817 RAE01 SLP140 P0000 T01390039
KFWA 071754Z 28009G23KT 10SM -RA FEW033 BKN055 BKN250 13/04 A2996 RMK AO2 RAB1656E32B48 SLP146 P0000 60000 T01330039 10144 20033 58020
KFWA 071654Z 22009KT 10SM FEW042 SCT090 BKN150 13/04 A2998 RMK AO2 SLP152 T01330044
KFWA 071554Z 21010G16KT 180V250 10SM FEW020 FEW080 BKN120 12/06 A3000 RMK AO2 SLP162 T01220061
KFWA 071454Z 16006KT 10SM SCT011 BKN100 10/07 A3002 RMK AO2 SLP167 SCT V FEW T01000067 58003
KFWA 071354Z 16004KT 8SM SCT006 BKN120 07/05 A3003 RMK AO2 SLP175 T00670050
KFWA 071314Z 12003KT 3SM BR BKN004 05/04 A3004 RMK AO2 T00500044
KFWA 071259Z 00000KT 2SM BR BKN002 04/04 A3004 RMK AO2 T00440039
KFWA 071254Z 00000KT 1 1/2SM BR BKN002 04/03 A3004 RMK AO2 SLP175 T00390033
KFWA 071237Z 00000KT 1SM BR BKN002 04/03 A3004 RMK AO2 T00390028
KFWA 071219Z 00000KT 1/2SM FG VV002 03/03 A3003 RMK AO2 T00330033
KFWA 071204Z 08003KT 1/4SM FG BKN003 03/03 A3003 RMK AO2 T00330028
KFWA 071154Z 09003KT 1/4SM FG SCT002 03/02 A3003 RMK AO2 SLP172 70007 T00330022 10050 20017 53007
KFWA 071137Z 00000KT 1/4SM FG SCT002 03/02 A3003 RMK AO2 T00280022
KFWA 071126Z 00000KT 1/2SM FG VV002 02/02 A3003 RMK AO2 T00220017
KFWA 071054Z 27003KT 1/4SM FG VV002 03/03 A3002 RMK AO2 SLP169 T00280028
KFWA 071001Z 31006KT 1/4SM FG VV002 03/03 A3001 RMK AO2 T00280028
KFWA 070954Z 32003KT 1/8SM FG VV002 03/03 A3001 RMK AO2 SLP166 T00280028
KFWA 070942Z 31005KT 1/8SM FG VV002 03/03 A3000 RMK AO2 T00330028
KFWA 070938Z 32004KT 1/4SM FG VV002 03/03 A3001 RMK AO2 T00330028
KFWA 070931Z 30004KT 3/4SM BR VV002 03/02 A3000 RMK AO2 T00330022
KFWA 070925Z 30004KT 1SM BR VV002 03/02 A3000 RMK AO2 VIS 3/4V1 1/2 T00330022